sensor_id;sensor_type;location;lat;lon;timestamp;P1;durP1;ratioP1;P2;durP2;ratioP2
76296;SDS011;65104;52.994;6.552;2022-11-20T00:01:13;29.95;;;15.80;;
76296;SDS011;65104;52.994;6.552;2022-11-20T00:03:45;27.33;;;16.42;;
76296;SDS011;65104;52.994;6.552;2022-11-20T00:06:12;28.73;;;14.88;;
76296;SDS011;65104;52.994;6.552;2022-11-20T00:08:40;28.10;;;16.25;;
76296;SDS011;65104;52.994;6.552;2022-11-20T00:11:06;31.67;;;17.25;;
76296;SDS011;65104;52.994;6.552;2022-11-20T00:13:34;32.40;;;17.50;;
76296;SDS011;65104;52.994;6.552;2022-11-20T00:16:00;28.52;;;17.73;;
76296;SDS011;65104;52.994;6.552;2022-11-20T00:18:26;27.20;;;15.45;;
76296;SDS011;65104;52.994;6.552;2022-11-20T00:20:52;22.67;;;14.13;;
76296;SDS011;65104;52.994;6.552;2022-11-20T00:23:18;23.90;;;14.10;;
76296;SDS011;65104;52.994;6.552;2022-11-20T00:25:43;22.58;;;12.15;;
76296;SDS011;65104;52.994;6.552;2022-11-20T00:28:09;19.42;;;10.30;;
76296;SDS011;65104;52.994;6.552;2022-11-20T00:30:34;19.30;;;11.35;;
76296;SDS011;65104;52.994;6.552;2022-11-20T00:32:59;19.70;;;10.50;;
76296;SDS011;65104;52.994;6.552;2022-11-20T00:35:25;19.00;;;11.50;;
76296;SDS011;65104;52.994;6.552;2022-11-20T00:37:50;24.15;;;12.60;;
76296;SDS011;65104;52.994;6.552;2022-11-20T00:40:15;19.27;;;11.13;;
76296;SDS011;65104;52.994;6.552;2022-11-20T00:42:41;19.75;;;11.43;;
76296;SDS011;65104;52.994;6.552;2022-11-20T00:45:06;17.80;;;10.25;;
76296;SDS011;65104;52.994;6.552;2022-11-20T00:47:32;18.98;;;10.18;;
76296;SDS011;65104;52.994;6.552;2022-11-20T00:49:57;22.67;;;10.02;;
76296;SDS011;65104;52.994;6.552;2022-11-20T00:52:23;17.85;;;9.00;;
76296;SDS011;65104;52.994;6.552;2022-11-20T00:54:48;18.67;;;8.85;;
76296;SDS011;65104;52.994;6.552;2022-11-20T00:57:13;15.00;;;7.80;;
76296;SDS011;65104;52.994;6.552;2022-11-20T00:59:39;13.57;;;6.90;;
76296;SDS011;65104;52.994;6.552;2022-11-20T01:02:04;17.67;;;8.18;;
76296;SDS011;65104;52.994;6.552;2022-11-20T01:04:30;12.80;;;7.35;;
76296;SDS011;65104;52.994;6.552;2022-11-20T01:06:55;12.13;;;7.18;;
76296;SDS011;65104;52.994;6.552;2022-11-20T01:09:20;14.35;;;7.55;;
76296;SDS011;65104;52.994;6.552;2022-11-20T01:11:46;16.30;;;8.93;;
76296;SDS011;65104;52.994;6.552;2022-11-20T01:14:13;16.17;;;9.52;;
76296;SDS011;65104;52.994;6.552;2022-11-20T01:16:42;16.80;;;8.48;;
76296;SDS011;65104;52.994;6.552;2022-11-20T01:19:10;18.30;;;8.82;;
76296;SDS011;65104;52.994;6.552;2022-11-20T01:21:39;19.52;;;8.65;;
76296;SDS011;65104;52.994;6.552;2022-11-20T01:24:06;14.85;;;8.73;;
76296;SDS011;65104;52.994;6.552;2022-11-20T01:26:34;13.95;;;8.18;;
76296;SDS011;65104;52.994;6.552;2022-11-20T01:29:01;13.15;;;7.22;;
76296;SDS011;65104;52.994;6.552;2022-11-20T01:33:55;16.25;;;8.10;;
76296;SDS011;65104;52.994;6.552;2022-11-20T01:36:23;14.52;;;7.93;;
76296;SDS011;65104;52.994;6.552;2022-11-20T01:38:51;15.57;;;8.43;;
76296;SDS011;65104;52.994;6.552;2022-11-20T01:41:18;16.15;;;8.30;;
76296;SDS011;65104;52.994;6.552;2022-11-20T01:44:03;16.10;;;8.13;;
76296;SDS011;65104;52.994;6.552;2022-11-20T01:46:30;16.73;;;7.50;;
76296;SDS011;65104;52.994;6.552;2022-11-20T01:49:04;13.05;;;7.32;;
76296;SDS011;65104;52.994;6.552;2022-11-20T01:51:34;15.93;;;8.07;;
76296;SDS011;65104;52.994;6.552;2022-11-20T01:54:06;12.88;;;7.72;;
76296;SDS011;65104;52.994;6.552;2022-11-20T01:56:37;14.07;;;7.95;;
76296;SDS011;65104;52.994;6.552;2022-11-20T01:59:07;12.98;;;7.07;;
76296;SDS011;65104;52.994;6.552;2022-11-20T02:01:35;11.25;;;6.70;;
76296;SDS011;65104;52.994;6.552;2022-11-20T02:04:02;12.15;;;6.45;;
76296;SDS011;65104;52.994;6.552;2022-11-20T02:09:07;11.82;;;7.10;;
76296;SDS011;65104;52.994;6.552;2022-11-20T02:11:32;16.27;;;6.80;;
76296;SDS011;65104;52.994;6.552;2022-11-20T02:13:58;10.57;;;6.53;;
76296;SDS011;65104;52.994;6.552;2022-11-20T02:16:28;13.10;;;7.22;;
76296;SDS011;65104;52.994;6.552;2022-11-20T02:19:00;14.50;;;6.85;;
76296;SDS011;65104;52.994;6.552;2022-11-20T02:21:33;11.18;;;6.22;;
76296;SDS011;65104;52.994;6.552;2022-11-20T02:24:11;11.50;;;6.00;;
76296;SDS011;65104;52.994;6.552;2022-11-20T02:26:47;10.73;;;6.53;;
76296;SDS011;65104;52.994;6.552;2022-11-20T02:29:19;13.40;;;7.38;;
76296;SDS011;65104;52.994;6.552;2022-11-20T02:31:50;13.30;;;6.95;;
76296;SDS011;65104;52.994;6.552;2022-11-20T02:34:17;11.88;;;6.78;;
76296;SDS011;65104;52.994;6.552;2022-11-20T02:36:43;13.63;;;7.60;;
76296;SDS011;65104;52.994;6.552;2022-11-20T02:39:11;11.82;;;5.88;;
76296;SDS011;65104;52.994;6.552;2022-11-20T02:44:04;13.00;;;6.78;;
76296;SDS011;65104;52.994;6.552;2022-11-20T02:46:30;14.75;;;7.07;;
76296;SDS011;65104;52.994;6.552;2022-11-20T02:48:56;13.85;;;7.03;;
76296;SDS011;65104;52.994;6.552;2022-11-20T02:51:22;13.55;;;7.82;;
76296;SDS011;65104;52.994;6.552;2022-11-20T02:53:48;13.02;;;6.70;;
76296;SDS011;65104;52.994;6.552;2022-11-20T02:56:13;12.27;;;7.28;;
76296;SDS011;65104;52.994;6.552;2022-11-20T02:58:38;12.50;;;6.28;;
76296;SDS011;65104;52.994;6.552;2022-11-20T03:01:04;10.60;;;7.03;;
76296;SDS011;65104;52.994;6.552;2022-11-20T03:03:29;13.35;;;7.00;;
76296;SDS011;65104;52.994;6.552;2022-11-20T03:05:55;13.20;;;7.18;;
76296;SDS011;65104;52.994;6.552;2022-11-20T03:08:20;12.55;;;7.15;;
76296;SDS011;65104;52.994;6.552;2022-11-20T03:10:45;12.90;;;7.40;;
76296;SDS011;65104;52.994;6.552;2022-11-20T03:13:10;13.20;;;7.40;;
76296;SDS011;65104;52.994;6.552;2022-11-20T03:15:36;13.25;;;6.20;;
76296;SDS011;65104;52.994;6.552;2022-11-20T03:18:02;9.40;;;5.95;;
76296;SDS011;65104;52.994;6.552;2022-11-20T03:20:28;13.45;;;7.45;;
76296;SDS011;65104;52.994;6.552;2022-11-20T03:22:54;11.70;;;6.50;;
76296;SDS011;65104;52.994;6.552;2022-11-20T03:25:20;11.60;;;6.65;;
76296;SDS011;65104;52.994;6.552;2022-11-20T03:27:46;11.32;;;6.97;;
76296;SDS011;65104;52.994;6.552;2022-11-20T03:30:12;11.80;;;6.47;;
76296;SDS011;65104;52.994;6.552;2022-11-20T03:32:37;11.63;;;7.45;;
76296;SDS011;65104;52.994;6.552;2022-11-20T03:35:03;9.60;;;6.07;;
76296;SDS011;65104;52.994;6.552;2022-11-20T03:37:28;15.18;;;7.70;;
76296;SDS011;65104;52.994;6.552;2022-11-20T03:39:54;13.30;;;7.00;;
76296;SDS011;65104;52.994;6.552;2022-11-20T03:42:19;12.95;;;6.68;;
76296;SDS011;65104;52.994;6.552;2022-11-20T03:45:03;10.43;;;7.05;;
76296;SDS011;65104;52.994;6.552;2022-11-20T03:47:29;11.68;;;6.88;;
76296;SDS011;65104;52.994;6.552;2022-11-20T03:49:55;12.40;;;6.53;;
76296;SDS011;65104;52.994;6.552;2022-11-20T03:52:20;10.57;;;6.10;;
76296;SDS011;65104;52.994;6.552;2022-11-20T03:54:45;10.48;;;6.20;;
76296;SDS011;65104;52.994;6.552;2022-11-20T03:57:11;12.75;;;7.20;;
76296;SDS011;65104;52.994;6.552;2022-11-20T03:59:36;13.23;;;6.80;;
76296;SDS011;65104;52.994;6.552;2022-11-20T04:02:01;12.73;;;6.70;;
76296;SDS011;65104;52.994;6.552;2022-11-20T04:04:27;14.18;;;6.75;;
76296;SDS011;65104;52.994;6.552;2022-11-20T04:06:52;12.65;;;6.53;;
76296;SDS011;65104;52.994;6.552;2022-11-20T04:09:17;11.70;;;6.05;;
76296;SDS011;65104;52.994;6.552;2022-11-20T04:11:43;10.55;;;6.25;;
76296;SDS011;65104;52.994;6.552;2022-11-20T04:14:12;10.53;;;6.27;;
76296;SDS011;65104;52.994;6.552;2022-11-20T04:16:40;11.25;;;6.15;;
76296;SDS011;65104;52.994;6.552;2022-11-20T04:19:09;13.60;;;7.40;;
76296;SDS011;65104;52.994;6.552;2022-11-20T04:21:36;13.70;;;6.93;;
76296;SDS011;65104;52.994;6.552;2022-11-20T04:24:01;12.25;;;6.72;;
76296;SDS011;65104;52.994;6.552;2022-11-20T04:26:27;13.90;;;6.97;;
76296;SDS011;65104;52.994;6.552;2022-11-20T04:28:54;11.07;;;7.28;;
76296;SDS011;65104;52.994;6.552;2022-11-20T04:31:21;12.10;;;6.57;;
76296;SDS011;65104;52.994;6.552;2022-11-20T04:33:49;11.23;;;6.50;;
76296;SDS011;65104;52.994;6.552;2022-11-20T04:36:16;12.70;;;7.47;;
76296;SDS011;65104;52.994;6.552;2022-11-20T04:38:42;12.75;;;7.35;;
76296;SDS011;65104;52.994;6.552;2022-11-20T04:41:10;10.43;;;6.22;;
76296;SDS011;65104;52.994;6.552;2022-11-20T04:43:40;12.05;;;6.63;;
76296;SDS011;65104;52.994;6.552;2022-11-20T04:46:05;12.35;;;6.53;;
76296;SDS011;65104;52.994;6.552;2022-11-20T04:48:31;11.07;;;6.70;;
76296;SDS011;65104;52.994;6.552;2022-11-20T04:50:56;13.57;;;7.53;;
76296;SDS011;65104;52.994;6.552;2022-11-20T04:53:22;13.07;;;7.10;;
76296;SDS011;65104;52.994;6.552;2022-11-20T04:55:48;13.90;;;7.03;;
76296;SDS011;65104;52.994;6.552;2022-11-20T04:58:14;11.30;;;7.15;;
76296;SDS011;65104;52.994;6.552;2022-11-20T05:00:40;11.05;;;6.65;;
76296;SDS011;65104;52.994;6.552;2022-11-20T05:03:05;11.18;;;6.78;;
76296;SDS011;65104;52.994;6.552;2022-11-20T05:05:32;10.68;;;6.55;;
76296;SDS011;65104;52.994;6.552;2022-11-20T05:07:59;15.20;;;6.85;;
76296;SDS011;65104;52.994;6.552;2022-11-20T05:10:25;11.30;;;7.50;;
76296;SDS011;65104;52.994;6.552;2022-11-20T05:12:51;12.98;;;7.13;;
76296;SDS011;65104;52.994;6.552;2022-11-20T05:15:17;12.13;;;6.40;;
76296;SDS011;65104;52.994;6.552;2022-11-20T05:17:51;10.13;;;6.80;;
76296;SDS011;65104;52.994;6.552;2022-11-20T05:20:17;13.85;;;6.32;;
76296;SDS011;65104;52.994;6.552;2022-11-20T05:22:43;11.02;;;6.38;;
76296;SDS011;65104;52.994;6.552;2022-11-20T05:25:09;10.50;;;6.40;;
76296;SDS011;65104;52.994;6.552;2022-11-20T05:27:35;9.60;;;6.15;;
76296;SDS011;65104;52.994;6.552;2022-11-20T05:30:01;10.10;;;6.25;;
76296;SDS011;65104;52.994;6.552;2022-11-20T05:32:27;11.18;;;6.80;;
76296;SDS011;65104;52.994;6.552;2022-11-20T05:34:53;15.82;;;7.88;;
76296;SDS011;65104;52.994;6.552;2022-11-20T05:37:18;14.85;;;7.47;;
76296;SDS011;65104;52.994;6.552;2022-11-20T05:39:43;13.30;;;6.63;;
76296;SDS011;65104;52.994;6.552;2022-11-20T05:42:09;12.75;;;6.70;;
76296;SDS011;65104;52.994;6.552;2022-11-20T05:44:53;10.93;;;6.40;;
76296;SDS011;65104;52.994;6.552;2022-11-20T05:47:18;10.27;;;5.67;;
76296;SDS011;65104;52.994;6.552;2022-11-20T05:49:43;10.35;;;6.60;;
76296;SDS011;65104;52.994;6.552;2022-11-20T05:52:09;10.40;;;5.90;;
76296;SDS011;65104;52.994;6.552;2022-11-20T05:54:34;16.45;;;7.13;;
76296;SDS011;65104;52.994;6.552;2022-11-20T05:57:00;12.57;;;6.22;;
76296;SDS011;65104;52.994;6.552;2022-11-20T05:59:25;14.57;;;7.03;;
76296;SDS011;65104;52.994;6.552;2022-11-20T06:01:50;12.93;;;6.60;;
76296;SDS011;65104;52.994;6.552;2022-11-20T06:04:16;11.73;;;5.90;;
76296;SDS011;65104;52.994;6.552;2022-11-20T06:06:41;11.57;;;7.10;;
76296;SDS011;65104;52.994;6.552;2022-11-20T06:09:06;12.13;;;6.75;;
76296;SDS011;65104;52.994;6.552;2022-11-20T06:11:32;11.63;;;6.32;;
76296;SDS011;65104;52.994;6.552;2022-11-20T06:13:57;10.88;;;5.70;;
76296;SDS011;65104;52.994;6.552;2022-11-20T06:16:22;10.95;;;5.88;;
76296;SDS011;65104;52.994;6.552;2022-11-20T06:18:48;10.85;;;5.82;;
76296;SDS011;65104;52.994;6.552;2022-11-20T06:21:15;11.68;;;6.30;;
76296;SDS011;65104;52.994;6.552;2022-11-20T06:23:42;11.90;;;6.28;;
76296;SDS011;65104;52.994;6.552;2022-11-20T06:26:16;10.95;;;5.55;;
76296;SDS011;65104;52.994;6.552;2022-11-20T06:31:10;11.30;;;5.97;;
76296;SDS011;65104;52.994;6.552;2022-11-20T06:33:36;10.13;;;5.72;;
76296;SDS011;65104;52.994;6.552;2022-11-20T06:36:02;9.18;;;6.10;;
76296;SDS011;65104;52.994;6.552;2022-11-20T06:38:28;12.55;;;5.53;;
76296;SDS011;65104;52.994;6.552;2022-11-20T06:40:54;10.23;;;5.93;;
76296;SDS011;65104;52.994;6.552;2022-11-20T06:43:19;11.90;;;6.40;;
76296;SDS011;65104;52.994;6.552;2022-11-20T06:45:45;10.48;;;6.20;;
76296;SDS011;65104;52.994;6.552;2022-11-20T06:48:10;13.53;;;6.67;;
76296;SDS011;65104;52.994;6.552;2022-11-20T06:50:36;13.18;;;6.22;;
76296;SDS011;65104;52.994;6.552;2022-11-20T06:53:02;10.68;;;5.80;;
76296;SDS011;65104;52.994;6.552;2022-11-20T06:55:28;11.75;;;6.40;;
76296;SDS011;65104;52.994;6.552;2022-11-20T06:57:54;10.00;;;5.55;;
76296;SDS011;65104;52.994;6.552;2022-11-20T07:00:19;11.68;;;6.45;;
76296;SDS011;65104;52.994;6.552;2022-11-20T07:02:44;11.60;;;6.72;;
76296;SDS011;65104;52.994;6.552;2022-11-20T07:05:10;11.00;;;6.22;;
76296;SDS011;65104;52.994;6.552;2022-11-20T07:07:35;10.70;;;6.03;;
76296;SDS011;65104;52.994;6.552;2022-11-20T07:10:01;11.55;;;6.68;;
76296;SDS011;65104;52.994;6.552;2022-11-20T07:12:26;10.43;;;6.03;;
76296;SDS011;65104;52.994;6.552;2022-11-20T07:14:51;10.85;;;7.00;;
76296;SDS011;65104;52.994;6.552;2022-11-20T07:17:17;11.38;;;6.05;;
76296;SDS011;65104;52.994;6.552;2022-11-20T07:19:42;8.65;;;5.03;;
76296;SDS011;65104;52.994;6.552;2022-11-20T07:22:08;10.00;;;5.35;;
76296;SDS011;65104;52.994;6.552;2022-11-20T07:24:33;11.75;;;6.55;;
76296;SDS011;65104;52.994;6.552;2022-11-20T07:26:59;10.18;;;6.00;;
76296;SDS011;65104;52.994;6.552;2022-11-20T07:29:25;11.55;;;5.53;;
76296;SDS011;65104;52.994;6.552;2022-11-20T07:31:50;8.27;;;5.00;;
76296;SDS011;65104;52.994;6.552;2022-11-20T07:34:16;7.77;;;5.33;;
76296;SDS011;65104;52.994;6.552;2022-11-20T07:36:41;10.93;;;6.13;;
76296;SDS011;65104;52.994;6.552;2022-11-20T07:39:06;11.68;;;5.72;;
76296;SDS011;65104;52.994;6.552;2022-11-20T07:41:32;8.98;;;5.13;;
76296;SDS011;65104;52.994;6.552;2022-11-20T07:43:57;8.75;;;4.93;;
76296;SDS011;65104;52.994;6.552;2022-11-20T07:46:22;10.37;;;5.23;;
76296;SDS011;65104;52.994;6.552;2022-11-20T07:48:48;8.23;;;5.15;;
76296;SDS011;65104;52.994;6.552;2022-11-20T07:51:13;10.98;;;5.68;;
76296;SDS011;65104;52.994;6.552;2022-11-20T07:53:39;9.38;;;5.53;;
76296;SDS011;65104;52.994;6.552;2022-11-20T07:56:04;8.68;;;4.75;;
76296;SDS011;65104;52.994;6.552;2022-11-20T07:58:30;8.23;;;4.95;;
76296;SDS011;65104;52.994;6.552;2022-11-20T08:00:58;8.27;;;5.20;;
76296;SDS011;65104;52.994;6.552;2022-11-20T08:03:27;10.20;;;5.72;;
76296;SDS011;65104;52.994;6.552;2022-11-20T08:05:52;9.20;;;5.13;;
76296;SDS011;65104;52.994;6.552;2022-11-20T08:08:17;7.03;;;4.47;;
76296;SDS011;65104;52.994;6.552;2022-11-20T08:10:43;9.60;;;5.13;;
76296;SDS011;65104;52.994;6.552;2022-11-20T08:13:08;11.18;;;5.60;;
76296;SDS011;65104;52.994;6.552;2022-11-20T08:15:52;9.88;;;5.55;;
76296;SDS011;65104;52.994;6.552;2022-11-20T08:18:17;10.93;;;5.82;;
76296;SDS011;65104;52.994;6.552;2022-11-20T08:20:43;11.32;;;6.28;;
76296;SDS011;65104;52.994;6.552;2022-11-20T08:23:09;11.30;;;6.07;;
76296;SDS011;65104;52.994;6.552;2022-11-20T08:25:35;11.10;;;6.15;;
76296;SDS011;65104;52.994;6.552;2022-11-20T08:28:03;11.05;;;6.18;;
76296;SDS011;65104;52.994;6.552;2022-11-20T08:30:30;9.35;;;5.75;;
76296;SDS011;65104;52.994;6.552;2022-11-20T08:33:00;9.18;;;5.78;;
76296;SDS011;65104;52.994;6.552;2022-11-20T08:35:28;11.50;;;6.40;;
76296;SDS011;65104;52.994;6.552;2022-11-20T08:37:53;10.88;;;6.55;;
76296;SDS011;65104;52.994;6.552;2022-11-20T08:40:19;9.32;;;5.63;;
76296;SDS011;65104;52.994;6.552;2022-11-20T08:42:47;8.65;;;6.00;;
76296;SDS011;65104;52.994;6.552;2022-11-20T08:45:14;11.63;;;6.03;;
76296;SDS011;65104;52.994;6.552;2022-11-20T08:47:40;10.02;;;5.80;;
76296;SDS011;65104;52.994;6.552;2022-11-20T08:50:06;8.48;;;5.13;;
76296;SDS011;65104;52.994;6.552;2022-11-20T08:52:31;12.00;;;5.82;;
76296;SDS011;65104;52.994;6.552;2022-11-20T08:54:57;8.82;;;5.35;;
76296;SDS011;65104;52.994;6.552;2022-11-20T08:57:22;10.43;;;5.82;;
76296;SDS011;65104;52.994;6.552;2022-11-20T08:59:48;10.73;;;5.55;;
76296;SDS011;65104;52.994;6.552;2022-11-20T09:02:13;10.23;;;6.10;;
76296;SDS011;65104;52.994;6.552;2022-11-20T09:04:39;29.15;;;24.23;;
76296;SDS011;65104;52.994;6.552;2022-11-20T09:07:04;9.90;;;6.15;;
76296;SDS011;65104;52.994;6.552;2022-11-20T09:09:30;10.70;;;6.55;;
76296;SDS011;65104;52.994;6.552;2022-11-20T09:11:55;36.55;;;23.30;;
76296;SDS011;65104;52.994;6.552;2022-11-20T09:14:21;13.57;;;9.03;;
76296;SDS011;65104;52.994;6.552;2022-11-20T09:16:46;11.57;;;6.47;;
76296;SDS011;65104;52.994;6.552;2022-11-20T09:19:14;9.68;;;5.95;;
76296;SDS011;65104;52.994;6.552;2022-11-20T09:21:42;8.35;;;5.00;;
76296;SDS011;65104;52.994;6.552;2022-11-20T09:24:07;15.35;;;8.95;;
76296;SDS011;65104;52.994;6.552;2022-11-20T09:26:32;7.95;;;5.43;;
76296;SDS011;65104;52.994;6.552;2022-11-20T09:28:58;9.30;;;5.13;;
76296;SDS011;65104;52.994;6.552;2022-11-20T09:31:24;8.23;;;4.95;;
76296;SDS011;65104;52.994;6.552;2022-11-20T09:33:50;7.65;;;5.07;;
76296;SDS011;65104;52.994;6.552;2022-11-20T09:36:16;10.80;;;6.78;;
76296;SDS011;65104;52.994;6.552;2022-11-20T09:38:43;11.10;;;7.30;;
76296;SDS011;65104;52.994;6.552;2022-11-20T09:46:48;8.38;;;5.32;;
76296;SDS011;65104;52.994;6.552;2022-11-20T09:51:57;9.40;;;5.93;;
76296;SDS011;65104;52.994;6.552;2022-11-20T09:54:42;8.63;;;5.57;;
76296;SDS011;65104;52.994;6.552;2022-11-20T09:57:10;8.88;;;5.47;;
76296;SDS011;65104;52.994;6.552;2022-11-20T09:59:48;11.35;;;7.35;;
76296;SDS011;65104;52.994;6.552;2022-11-20T10:05:06;8.05;;;5.65;;
76296;SDS011;65104;52.994;6.552;2022-11-20T10:07:42;9.23;;;6.53;;
76296;SDS011;65104;52.994;6.552;2022-11-20T10:10:16;10.55;;;5.32;;
76296;SDS011;65104;52.994;6.552;2022-11-20T10:18:39;8.45;;;5.18;;
76296;SDS011;65104;52.994;6.552;2022-11-20T10:29:10;7.50;;;4.55;;
76296;SDS011;65104;52.994;6.552;2022-11-20T10:31:37;8.25;;;5.88;;
76296;SDS011;65104;52.994;6.552;2022-11-20T10:34:06;7.43;;;5.18;;
76296;SDS011;65104;52.994;6.552;2022-11-20T10:36:50;9.70;;;5.72;;
76296;SDS011;65104;52.994;6.552;2022-11-20T10:39:23;6.95;;;4.85;;
76296;SDS011;65104;52.994;6.552;2022-11-20T10:41:56;9.73;;;5.28;;
76296;SDS011;65104;52.994;6.552;2022-11-20T10:44:22;11.10;;;6.45;;
76296;SDS011;65104;52.994;6.552;2022-11-20T10:47:15;7.35;;;5.80;;
76296;SDS011;65104;52.994;6.552;2022-11-20T10:49:43;6.93;;;4.57;;
76296;SDS011;65104;52.994;6.552;2022-11-20T11:00:20;10.38;;;5.15;;
76296;SDS011;65104;52.994;6.552;2022-11-20T11:02:49;8.48;;;4.85;;
76296;SDS011;65104;52.994;6.552;2022-11-20T11:07:41;8.03;;;4.17;;
76296;SDS011;65104;52.994;6.552;2022-11-20T11:12:46;7.32;;;4.57;;
76296;SDS011;65104;52.994;6.552;2022-11-20T11:15:58;12.23;;;6.63;;
76296;SDS011;65104;52.994;6.552;2022-11-20T11:18:08;8.23;;;4.47;;
76296;SDS011;65104;52.994;6.552;2022-11-20T11:20:35;6.63;;;4.07;;
76296;SDS011;65104;52.994;6.552;2022-11-20T11:23:01;6.78;;;5.07;;
76296;SDS011;65104;52.994;6.552;2022-11-20T11:25:34;7.63;;;5.35;;
76296;SDS011;65104;52.994;6.552;2022-11-20T11:28:02;8.43;;;5.10;;
76296;SDS011;65104;52.994;6.552;2022-11-20T11:30:51;7.32;;;4.72;;
76296;SDS011;65104;52.994;6.552;2022-11-20T11:33:24;8.57;;;5.65;;
76296;SDS011;65104;52.994;6.552;2022-11-20T11:35:55;11.20;;;5.82;;
76296;SDS011;65104;52.994;6.552;2022-11-20T11:41:41;7.05;;;4.55;;
76296;SDS011;65104;52.994;6.552;2022-11-20T11:44:12;7.07;;;5.05;;
76296;SDS011;65104;52.994;6.552;2022-11-20T11:47:03;5.55;;;4.10;;
76296;SDS011;65104;52.994;6.552;2022-11-20T11:49:33;6.57;;;3.90;;
76296;SDS011;65104;52.994;6.552;2022-11-20T11:55:07;5.68;;;3.60;;
76296;SDS011;65104;52.994;6.552;2022-11-20T12:00:20;5.25;;;3.67;;
76296;SDS011;65104;52.994;6.552;2022-11-20T12:08:05;10.80;;;6.53;;
76296;SDS011;65104;52.994;6.552;2022-11-20T12:10:49;10.05;;;5.82;;
76296;SDS011;65104;52.994;6.552;2022-11-20T12:13:25;7.95;;;4.90;;
76296;SDS011;65104;52.994;6.552;2022-11-20T12:15:59;7.78;;;4.88;;
76296;SDS011;65104;52.994;6.552;2022-11-20T12:18:26;18.83;;;9.80;;
76296;SDS011;65104;52.994;6.552;2022-11-20T12:23:50;13.15;;;7.55;;
76296;SDS011;65104;52.994;6.552;2022-11-20T12:29:19;6.88;;;5.82;;
76296;SDS011;65104;52.994;6.552;2022-11-20T12:37:36;6.47;;;4.13;;
76296;SDS011;65104;52.994;6.552;2022-11-20T12:48:39;10.80;;;8.05;;
76296;SDS011;65104;52.994;6.552;2022-11-20T12:51:18;10.95;;;7.68;;
76296;SDS011;65104;52.994;6.552;2022-11-20T13:05:09;5.72;;;4.28;;
76296;SDS011;65104;52.994;6.552;2022-11-20T13:07:48;5.78;;;3.88;;
76296;SDS011;65104;52.994;6.552;2022-11-20T13:18:35;5.20;;;3.40;;
76296;SDS011;65104;52.994;6.552;2022-11-20T13:21:36;4.63;;;3.38;;
76296;SDS011;65104;52.994;6.552;2022-11-20T13:26:45;7.32;;;5.22;;
76296;SDS011;65104;52.994;6.552;2022-11-20T13:29:12;6.88;;;4.28;;
76296;SDS011;65104;52.994;6.552;2022-11-20T13:31:48;6.15;;;4.07;;
76296;SDS011;65104;52.994;6.552;2022-11-20T13:34:22;6.50;;;3.78;;
76296;SDS011;65104;52.994;6.552;2022-11-20T13:36:51;5.90;;;3.78;;
76296;SDS011;65104;52.994;6.552;2022-11-20T13:39:28;6.07;;;3.75;;
76296;SDS011;65104;52.994;6.552;2022-11-20T13:44:39;7.25;;;3.80;;
76296;SDS011;65104;52.994;6.552;2022-11-20T13:47:22;8.68;;;4.00;;
76296;SDS011;65104;52.994;6.552;2022-11-20T13:49:52;6.30;;;4.50;;
76296;SDS011;65104;52.994;6.552;2022-11-20T14:00:58;8.23;;;4.50;;
76296;SDS011;65104;52.994;6.552;2022-11-20T14:03:33;6.68;;;4.40;;
76296;SDS011;65104;52.994;6.552;2022-11-20T14:06:02;6.72;;;5.10;;
76296;SDS011;65104;52.994;6.552;2022-11-20T14:08:35;7.38;;;4.95;;
76296;SDS011;65104;52.994;6.552;2022-11-20T14:11:19;8.32;;;4.80;;
76296;SDS011;65104;52.994;6.552;2022-11-20T14:13:54;10.05;;;5.47;;
76296;SDS011;65104;52.994;6.552;2022-11-20T14:16:20;10.45;;;5.75;;
76296;SDS011;65104;52.994;6.552;2022-11-20T14:18:49;10.10;;;5.90;;
76296;SDS011;65104;52.994;6.552;2022-11-20T14:21:22;10.20;;;5.70;;
76296;SDS011;65104;52.994;6.552;2022-11-20T14:23:52;9.40;;;5.90;;
76296;SDS011;65104;52.994;6.552;2022-11-20T14:26:41;8.85;;;5.10;;
76296;SDS011;65104;52.994;6.552;2022-11-20T14:29:28;8.68;;;5.15;;
76296;SDS011;65104;52.994;6.552;2022-11-20T14:31:58;7.18;;;4.53;;
76296;SDS011;65104;52.994;6.552;2022-11-20T14:34:31;10.52;;;6.10;;
76296;SDS011;65104;52.994;6.552;2022-11-20T14:37:01;9.13;;;5.30;;
76296;SDS011;65104;52.994;6.552;2022-11-20T14:39:40;11.63;;;5.78;;
76296;SDS011;65104;52.994;6.552;2022-11-20T14:42:17;9.77;;;5.85;;
76296;SDS011;65104;52.994;6.552;2022-11-20T14:44:45;8.95;;;5.57;;
76296;SDS011;65104;52.994;6.552;2022-11-20T14:47:13;7.82;;;5.53;;
76296;SDS011;65104;52.994;6.552;2022-11-20T14:49:42;10.77;;;6.20;;
76296;SDS011;65104;52.994;6.552;2022-11-20T14:52:16;10.57;;;5.63;;
76296;SDS011;65104;52.994;6.552;2022-11-20T15:02:44;10.27;;;5.65;;
76296;SDS011;65104;52.994;6.552;2022-11-20T15:05:11;8.73;;;5.32;;
76296;SDS011;65104;52.994;6.552;2022-11-20T15:07:41;8.38;;;5.28;;
76296;SDS011;65104;52.994;6.552;2022-11-20T15:10:21;7.82;;;5.50;;
76296;SDS011;65104;52.994;6.552;2022-11-20T15:12:49;9.15;;;5.38;;
76296;SDS011;65104;52.994;6.552;2022-11-20T15:15:21;6.93;;;4.93;;
76296;SDS011;65104;52.994;6.552;2022-11-20T15:17:50;8.63;;;5.28;;
76296;SDS011;65104;52.994;6.552;2022-11-20T15:20:16;8.50;;;5.45;;
76296;SDS011;65104;52.994;6.552;2022-11-20T15:22:42;11.32;;;5.93;;
76296;SDS011;65104;52.994;6.552;2022-11-20T15:25:11;7.95;;;5.20;;
76296;SDS011;65104;52.994;6.552;2022-11-20T15:27:42;9.35;;;5.85;;
76296;SDS011;65104;52.994;6.552;2022-11-20T15:30:15;10.60;;;6.10;;
76296;SDS011;65104;52.994;6.552;2022-11-20T15:32:42;8.38;;;5.55;;
76296;SDS011;65104;52.994;6.552;2022-11-20T15:35:09;10.10;;;5.85;;
76296;SDS011;65104;52.994;6.552;2022-11-20T15:37:35;9.07;;;5.53;;
76296;SDS011;65104;52.994;6.552;2022-11-20T15:40:04;10.55;;;6.25;;
76296;SDS011;65104;52.994;6.552;2022-11-20T15:42:31;9.38;;;6.18;;
76296;SDS011;65104;52.994;6.552;2022-11-20T15:44:56;9.23;;;5.72;;
76296;SDS011;65104;52.994;6.552;2022-11-20T15:47:23;11.27;;;7.03;;
76296;SDS011;65104;52.994;6.552;2022-11-20T15:49:52;10.27;;;6.35;;
76296;SDS011;65104;52.994;6.552;2022-11-20T15:52:18;9.55;;;6.53;;
76296;SDS011;65104;52.994;6.552;2022-11-20T15:54:43;12.77;;;6.63;;
76296;SDS011;65104;52.994;6.552;2022-11-20T15:57:09;11.15;;;6.70;;
76296;SDS011;65104;52.994;6.552;2022-11-20T15:59:34;12.18;;;6.32;;
76296;SDS011;65104;52.994;6.552;2022-11-20T16:02:02;12.07;;;6.65;;
76296;SDS011;65104;52.994;6.552;2022-11-20T16:04:27;12.35;;;6.78;;
76296;SDS011;65104;52.994;6.552;2022-11-20T16:06:53;12.40;;;7.85;;
76296;SDS011;65104;52.994;6.552;2022-11-20T16:09:18;14.00;;;7.57;;
76296;SDS011;65104;52.994;6.552;2022-11-20T16:11:43;10.65;;;6.47;;
76296;SDS011;65104;52.994;6.552;2022-11-20T16:14:10;10.68;;;6.55;;
76296;SDS011;65104;52.994;6.552;2022-11-20T16:16:54;11.02;;;7.20;;
76296;SDS011;65104;52.994;6.552;2022-11-20T16:19:20;12.98;;;7.60;;
76296;SDS011;65104;52.994;6.552;2022-11-20T16:21:45;16.30;;;8.07;;
76296;SDS011;65104;52.994;6.552;2022-11-20T16:24:11;13.35;;;6.97;;
76296;SDS011;65104;52.994;6.552;2022-11-20T16:26:38;12.70;;;7.15;;
76296;SDS011;65104;52.994;6.552;2022-11-20T16:29:04;12.45;;;6.93;;
76296;SDS011;65104;52.994;6.552;2022-11-20T16:31:31;12.63;;;7.28;;
76296;SDS011;65104;52.994;6.552;2022-11-20T16:34:01;12.73;;;7.90;;
76296;SDS011;65104;52.994;6.552;2022-11-20T16:36:29;12.05;;;7.45;;
76296;SDS011;65104;52.994;6.552;2022-11-20T16:38:56;12.75;;;7.40;;
76296;SDS011;65104;52.994;6.552;2022-11-20T16:41:24;12.63;;;7.55;;
76296;SDS011;65104;52.994;6.552;2022-11-20T16:43:52;15.80;;;8.65;;
76296;SDS011;65104;52.994;6.552;2022-11-20T16:46:20;13.02;;;7.90;;
76296;SDS011;65104;52.994;6.552;2022-11-20T16:48:53;12.55;;;8.30;;